createdAt,value
2023-01-23T00:03:18.654Z,67.93
2023-01-23T00:05:46.654Z,79.77
2023-01-23T00:08:14.669Z,79.65
2023-01-23T00:10:42.701Z,76.43
2023-01-23T00:13:10.710Z,70.72
2023-01-23T00:15:40.648Z,78.28
2023-01-23T00:18:10.065Z,69.53
2023-01-23T00:20:38.875Z,73.68
2023-01-23T00:23:06.916Z,70.40
2023-01-23T00:25:34.969Z,74.00
2023-01-23T00:28:03.175Z,73.60
2023-01-23T00:30:31.198Z,70.30
2023-01-23T00:32:59.237Z,72.03
2023-01-23T00:35:28.670Z,79.90
2023-01-23T00:37:57.852Z,69.75
2023-01-23T00:40:25.890Z,73.28
2023-01-23T00:42:54.960Z,70.28
2023-01-23T00:45:22.980Z,69.68
2023-01-23T00:47:50.963Z,74.43
2023-01-23T00:50:19.202Z,69.68
2023-01-23T00:52:48.707Z,70.18
2023-01-23T00:55:16.750Z,63.80
2023-01-23T00:57:44.739Z,68.25
2023-01-23T01:00:13.594Z,68.75
2023-01-23T01:02:41.684Z,50.35
2023-01-23T01:05:10.670Z,59.17
2023-01-23T01:07:38.898Z,67.53
2023-01-23T01:10:09.457Z,62.13
2023-01-23T01:12:37.532Z,69.05
2023-01-23T01:15:07.581Z,66.38
2023-01-23T01:17:35.669Z,69.85
2023-01-23T01:20:04.646Z,68.95
2023-01-23T01:22:32.766Z,71.13
2023-01-23T01:25:00.752Z,72.63
2023-01-23T01:27:31.066Z,61.83
2023-01-23T01:29:59.053Z,66.55
2023-01-23T01:32:27.176Z,67.10
2023-01-23T01:34:55.380Z,69.05
2023-01-23T01:37:25.183Z,66.85
2023-01-23T01:39:53.225Z,70.63
2023-01-23T01:42:21.244Z,66.45
2023-01-23T01:44:58.846Z,70.28
2023-01-23T01:47:27.426Z,69.55
2023-01-23T01:49:59.018Z,71.17
2023-01-23T01:52:27.929Z,75.05
2023-01-23T01:55:00.140Z,53.58
2023-01-23T01:57:30.885Z,67.68
2023-01-23T02:00:06.978Z,71.47
2023-01-23T02:02:38.055Z,77.32
2023-01-23T02:05:10.736Z,75.22
2023-01-23T02:07:49.252Z,71.93
2023-01-23T02:10:19.003Z,70.82
2023-01-23T02:12:48.301Z,71.82
2023-01-23T02:15:20.462Z,73.90
2023-01-23T02:17:50.839Z,74.28
2023-01-23T02:20:22.447Z,69.28
2023-01-23T02:23:01.263Z,71.45
2023-01-23T02:25:34.102Z,76.40
2023-01-23T02:28:03.491Z,74.22
2023-01-23T02:30:31.518Z,79.80
2023-01-23T02:33:09.853Z,81.63
2023-01-23T02:35:38.502Z,73.75
2023-01-23T02:38:07.616Z,55.88
2023-01-23T02:40:38.669Z,81.38
2023-01-23T02:43:10.739Z,72.60
2023-01-23T02:45:38.865Z,74.25
2023-01-23T02:48:08.168Z,74.38
2023-01-23T02:50:36.584Z,72.05
2023-01-23T02:53:05.191Z,77.15
2023-01-23T02:55:33.929Z,70.70
2023-01-23T02:58:16.113Z,75.63
2023-01-23T03:00:45.707Z,80.60
2023-01-23T03:03:15.876Z,76.68
2023-01-23T03:05:43.978Z,84.65
2023-01-23T03:08:12.054Z,75.50
2023-01-23T03:10:40.057Z,77.25
2023-01-23T03:13:10.497Z,74.95
2023-01-23T03:15:39.181Z,84.68
2023-01-23T03:18:08.655Z,83.60
2023-01-23T03:23:07.398Z,74.05
2023-01-23T03:25:35.443Z,72.75
2023-01-23T03:28:03.616Z,69.20
2023-01-23T03:30:30.736Z,75.72
2023-01-23T03:32:58.855Z,76.18
2023-01-23T03:35:28.211Z,76.80
2023-01-23T03:37:56.201Z,72.68
2023-01-23T03:40:43.710Z,75.15
2023-01-23T03:43:11.755Z,75.32
2023-01-23T03:45:39.822Z,78.13
2023-01-23T03:48:08.036Z,71.03
2023-01-23T03:50:37.407Z,77.43
2023-01-23T03:53:05.434Z,79.15
2023-01-23T03:55:33.467Z,76.28
2023-01-23T03:58:01.484Z,86.15
2023-01-23T04:00:29.505Z,89.68
2023-01-23T04:02:57.553Z,81.38
2023-01-23T04:05:25.661Z,84.05
2023-01-23T04:07:55.011Z,84.32
2023-01-23T04:10:23.067Z,78.07
2023-01-23T04:12:51.092Z,82.18
2023-01-23T04:15:19.204Z,84.38
2023-01-23T04:17:47.209Z,84.35
2023-01-23T04:20:15.529Z,83.32
2023-01-23T04:22:43.584Z,81.05
2023-01-23T04:25:12.979Z,83.10
2023-01-23T04:27:41.056Z,84.20
2023-01-23T04:30:10.408Z,87.38
2023-01-23T04:32:38.517Z,89.70
2023-01-23T04:35:07.546Z,82.80
2023-01-23T04:37:35.985Z,78.97
2023-01-23T04:40:04.147Z,86.78
2023-01-23T04:42:33.514Z,85.43
2023-01-23T04:45:01.525Z,86.63
2023-01-23T04:47:29.501Z,83.00
2023-01-23T04:49:57.501Z,83.30
2023-01-23T04:52:25.497Z,94.95
2023-01-23T04:54:53.506Z,91.43
2023-01-23T04:57:21.581Z,92.22
2023-01-23T04:59:50.995Z,90.95
2023-01-23T05:02:19.167Z,93.15
2023-01-23T05:04:47.157Z,87.55
2023-01-23T05:07:15.315Z,95.22
2023-01-23T05:09:43.609Z,96.28
2023-01-23T05:12:11.635Z,94.18
2023-01-23T05:14:39.672Z,90.65
2023-01-23T05:17:09.014Z,87.38
2023-01-23T05:19:37.042Z,90.90
2023-01-23T05:22:05.011Z,92.35
2023-01-23T05:24:33.080Z,89.47
2023-01-23T05:27:01.236Z,99.10
2023-01-23T05:29:29.257Z,87.43
2023-01-23T05:31:57.348Z,97.78
2023-01-23T05:34:26.880Z,87.55
2023-01-23T05:39:23.189Z,89.40
2023-01-23T05:41:51.192Z,96.03
2023-01-23T05:44:19.145Z,96.22
2023-01-23T05:46:47.186Z,101.75
2023-01-23T05:49:15.252Z,105.60
2023-01-23T05:51:44.679Z,94.45
2023-01-23T05:54:12.689Z,87.57
2023-01-23T05:56:40.669Z,99.47
2023-01-23T05:59:08.718Z,99.53
2023-01-23T06:01:36.751Z,98.10
2023-01-23T06:04:04.846Z,96.53
2023-01-23T06:06:32.837Z,94.97
2023-01-23T06:09:02.249Z,94.50
2023-01-23T06:11:30.290Z,97.28
2023-01-23T06:13:58.309Z,116.20
2023-01-23T06:16:26.530Z,98.95
2023-01-23T06:18:54.600Z,102.50
2023-01-23T06:21:22.681Z,96.57
2023-01-23T06:23:50.723Z,105.20
2023-01-23T06:26:20.065Z,104.32
2023-01-23T06:28:48.165Z,96.60
2023-01-23T06:31:16.219Z,119.70
2023-01-23T06:33:44.459Z,110.35
2023-01-23T06:36:12.456Z,110.00
2023-01-23T06:38:40.546Z,108.18
2023-01-23T06:41:09.707Z,114.32
2023-01-23T06:43:39.370Z,128.85
2023-01-23T06:46:10.263Z,104.88
2023-01-23T06:48:39.171Z,109.55
2023-01-23T06:51:07.570Z,104.18
2023-01-23T06:53:35.586Z,109.07
2023-01-23T06:56:05.384Z,112.15
2023-01-23T06:58:33.776Z,106.90
2023-01-23T07:01:10.101Z,123.38
2023-01-23T07:03:38.232Z,108.75
2023-01-23T07:06:07.234Z,122.68
2023-01-23T07:08:35.895Z,109.40
2023-01-23T07:11:04.350Z,115.75
2023-01-23T07:13:32.393Z,106.63
2023-01-23T07:16:01.815Z,106.28
2023-01-23T07:20:58.449Z,111.00
2023-01-23T07:23:26.521Z,111.18
2023-01-23T07:26:00.326Z,110.63
2023-01-23T07:28:28.405Z,97.57
2023-01-23T07:30:58.112Z,94.13
2023-01-23T07:33:27.810Z,100.68
2023-01-23T07:35:56.001Z,111.93
2023-01-23T07:38:24.117Z,95.15
2023-01-23T07:40:52.209Z,91.80
2023-01-23T07:43:20.548Z,93.00
2023-01-23T07:45:48.593Z,88.40
2023-01-23T07:48:16.732Z,92.32
2023-01-23T07:50:46.166Z,93.70
2023-01-23T07:53:14.170Z,88.50
2023-01-23T07:55:42.279Z,94.30
2023-01-23T07:58:10.343Z,95.85
2023-01-23T08:00:38.557Z,88.03
2023-01-23T08:03:06.632Z,93.72
2023-01-23T08:05:34.680Z,81.15
2023-01-23T08:08:13.136Z,84.20
2023-01-23T08:10:42.275Z,89.60
2023-01-23T08:13:10.561Z,86.47
2023-01-23T08:15:39.882Z,124.53
2023-01-23T08:18:07.989Z,88.65
2023-01-23T08:20:36.026Z,80.75
2023-01-23T08:23:05.447Z,87.13
2023-01-23T08:25:33.477Z,480.00
2023-01-23T08:28:01.477Z,686.20
2023-01-23T08:30:29.540Z,277.02
2023-01-23T08:32:58.042Z,105.22
2023-01-23T08:35:26.054Z,91.97
2023-01-23T08:37:54.058Z,84.38
2023-01-23T08:40:23.567Z,83.32
2023-01-23T08:45:19.465Z,73.10
2023-01-23T08:47:47.475Z,75.78
2023-01-23T08:50:15.948Z,65.93
2023-01-23T08:52:44.028Z,65.25
2023-01-23T08:55:12.772Z,68.80
2023-01-23T08:57:42.208Z,62.50
2023-01-23T09:00:11.671Z,58.53
2023-01-23T09:05:08.407Z,59.53
2023-01-23T09:07:37.902Z,55.72
2023-01-23T09:12:34.552Z,46.75
2023-01-23T09:15:03.986Z,52.78
2023-01-23T09:17:31.987Z,59.35
2023-01-23T09:20:00.677Z,51.00
2023-01-23T09:22:28.880Z,40.67
2023-01-23T09:24:56.919Z,51.20
2023-01-23T09:27:24.929Z,74.57
2023-01-23T09:29:52.975Z,69.22
2023-01-23T09:32:22.494Z,66.68
2023-01-23T09:37:18.972Z,60.88
2023-01-23T09:39:47.324Z,50.27
2023-01-23T09:42:19.039Z,45.03
2023-01-23T09:44:51.367Z,51.05
2023-01-23T09:47:25.876Z,50.10
2023-01-23T09:50:00.945Z,54.15
2023-01-23T09:52:33.013Z,53.60
2023-01-23T09:55:05.381Z,58.33
2023-01-23T09:57:37.947Z,51.03
2023-01-23T10:00:11.956Z,43.28
2023-01-23T10:02:44.725Z,46.75
2023-01-23T10:05:15.733Z,30.30
2023-01-23T10:08:00.403Z,33.22
2023-01-23T10:10:53.622Z,30.95
2023-01-23T10:13:29.848Z,27.80
2023-01-23T10:16:12.723Z,30.35
2023-01-23T10:18:54.245Z,29.75
2023-01-23T10:21:28.861Z,25.58
2023-01-23T10:24:04.822Z,29.75
2023-01-23T10:26:40.027Z,28.13
2023-01-23T10:29:16.438Z,29.65
2023-01-23T10:31:49.832Z,34.03
2023-01-23T10:34:24.534Z,34.83
2023-01-23T10:37:06.297Z,34.67
2023-01-23T10:39:43.528Z,31.88
2023-01-23T10:42:13.741Z,31.95
2023-01-23T10:44:41.757Z,29.17
2023-01-23T10:47:20.955Z,29.20
2023-01-23T10:49:50.547Z,29.08
2023-01-23T10:55:01.385Z,29.33
2023-01-23T10:57:31.274Z,30.98
2023-01-23T11:00:04.282Z,30.58
2023-01-23T11:02:33.902Z,34.60
2023-01-23T11:05:05.193Z,31.15
2023-01-23T11:07:40.355Z,30.88
2023-01-23T11:10:21.091Z,32.85
2023-01-23T11:12:51.507Z,30.92
2023-01-23T11:15:25.170Z,34.35
2023-01-23T11:17:55.605Z,30.38
2023-01-23T11:20:28.827Z,29.85
2023-01-23T11:23:05.875Z,35.92
2023-01-23T11:25:37.834Z,33.53
2023-01-23T11:28:23.310Z,33.75
2023-01-23T11:31:11.571Z,34.92
2023-01-23T11:33:47.729Z,35.50
2023-01-23T11:36:42.118Z,33.33
2023-01-23T11:39:19.773Z,27.70
2023-01-23T11:41:48.732Z,29.33
2023-01-23T11:44:19.293Z,30.77
2023-01-23T11:47:07.191Z,30.42
2023-01-23T11:49:57.983Z,34.45
2023-01-23T11:52:37.401Z,35.00
2023-01-23T11:55:29.804Z,33.33
2023-01-23T11:58:14.332Z,40.47
2023-01-23T12:00:46.569Z,34.35
2023-01-23T12:03:47.265Z,29.58
2023-01-23T12:06:40.102Z,30.40
2023-01-23T12:09:14.548Z,32.97
2023-01-23T12:11:57.217Z,32.08
2023-01-23T12:14:31.754Z,35.42
2023-01-23T12:17:25.478Z,37.28
2023-01-23T12:20:11.340Z,34.78
2023-01-23T12:22:54.489Z,31.80
2023-01-23T12:25:34.899Z,30.75
2023-01-23T12:28:11.127Z,32.70
2023-01-23T12:31:05.651Z,34.13
2023-01-23T12:33:51.323Z,37.47
2023-01-23T12:36:40.355Z,38.42
2023-01-23T12:39:27.352Z,35.90
2023-01-23T12:42:03.938Z,38.22
2023-01-23T12:44:37.771Z,35.65
2023-01-23T12:47:09.662Z,32.97
2023-01-23T12:49:43.700Z,34.70
2023-01-23T12:52:17.078Z,34.13
2023-01-23T12:54:52.121Z,31.60
2023-01-23T12:57:46.149Z,34.33
2023-01-23T13:00:37.525Z,37.15
2023-01-23T13:03:22.762Z,32.30
2023-01-23T13:06:03.996Z,32.60
2023-01-23T13:08:50.781Z,33.03
2023-01-23T13:11:42.403Z,30.48
2023-01-23T13:14:25.544Z,32.28
2023-01-23T13:16:58.833Z,35.83
2023-01-23T13:19:46.194Z,34.70
2023-01-23T13:22:28.581Z,35.42
2023-01-23T13:25:12.735Z,34.85
2023-01-23T13:27:51.253Z,33.95
2023-01-23T13:30:40.626Z,38.33
2023-01-23T13:33:55.237Z,36.50
2023-01-23T13:36:35.784Z,42.13
2023-01-23T13:39:24.855Z,32.55
2023-01-23T13:42:09.093Z,39.33
2023-01-23T13:44:42.136Z,38.35
2023-01-23T14:24:47.389Z,43.80
2023-01-23T14:27:22.191Z,63.28
2023-01-23T14:29:59.106Z,45.13
2023-01-23T14:32:30.100Z,45.35
2023-01-23T14:34:58.315Z,49.95
2023-01-23T14:37:29.239Z,44.03
2023-01-23T14:40:09.718Z,47.15
2023-01-23T14:42:40.778Z,42.42
2023-01-23T14:45:13.246Z,34.72
2023-01-23T14:47:46.951Z,47.22
2023-01-23T14:50:20.863Z,49.92
2023-01-23T14:52:58.501Z,47.20
2023-01-23T14:55:30.075Z,45.05
2023-01-23T14:58:00.741Z,46.45
2023-01-23T15:00:30.328Z,49.20
2023-01-23T15:02:58.470Z,49.00
2023-01-23T15:05:28.835Z,43.13
2023-01-23T15:08:00.667Z,47.55
2023-01-23T15:10:30.875Z,42.28
2023-01-23T15:13:02.415Z,45.17
2023-01-23T15:15:32.386Z,47.88
2023-01-23T15:18:02.042Z,49.33
2023-01-23T15:20:35.355Z,47.08
2023-01-23T15:23:28.460Z,48.58
2023-01-23T15:26:24.391Z,51.97
2023-01-23T15:28:54.521Z,52.83
2023-01-23T15:31:27.030Z,53.00
2023-01-23T15:33:55.581Z,55.72
2023-01-23T15:36:29.188Z,54.55
2023-01-23T15:39:00.385Z,53.30
2023-01-23T15:41:40.613Z,52.28
2023-01-23T15:44:16.374Z,50.70
2023-01-23T15:46:44.479Z,57.25
2023-01-23T15:49:24.312Z,54.20
2023-01-23T15:51:53.344Z,48.72
2023-01-23T15:54:27.470Z,43.30
2023-01-23T15:57:06.695Z,46.47
2023-01-23T15:59:36.519Z,54.22
2023-01-23T16:02:04.757Z,49.60
2023-01-23T16:04:32.993Z,49.42
2023-01-23T16:07:06.323Z,46.25
2023-01-23T16:09:39.020Z,51.13
2023-01-23T16:12:15.331Z,49.67
2023-01-23T16:14:43.328Z,45.13
2023-01-23T16:17:16.792Z,51.28
2023-01-23T16:19:45.798Z,48.85
2023-01-23T16:22:18.926Z,52.63
2023-01-23T16:24:48.380Z,48.03
2023-01-23T16:27:19.078Z,50.15
2023-01-23T16:29:49.426Z,54.60
2023-01-23T16:32:17.778Z,55.35
2023-01-23T16:34:45.864Z,55.55
2023-01-23T16:37:17.329Z,50.25
2023-01-23T16:39:46.633Z,52.97
2023-01-23T16:42:22.232Z,61.53
2023-01-23T16:44:50.923Z,56.65
2023-01-23T16:47:18.972Z,51.63
2023-01-23T16:49:52.711Z,53.70
2023-01-23T16:52:24.659Z,61.75
2023-01-23T16:54:54.511Z,59.25
2023-01-23T16:57:24.864Z,47.72
2023-01-23T16:59:56.260Z,53.38
2023-01-23T17:02:30.244Z,51.63
2023-01-23T17:04:58.548Z,51.08
2023-01-23T17:07:26.572Z,54.03
2023-01-23T17:09:54.640Z,57.50
2023-01-23T17:12:27.674Z,58.08
2023-01-23T17:14:56.884Z,56.58
2023-01-23T17:17:30.369Z,57.45
2023-01-23T17:19:58.837Z,55.45
2023-01-23T17:22:31.290Z,54.08
2023-01-23T17:24:59.351Z,56.25
2023-01-23T17:27:28.947Z,54.17
2023-01-23T17:32:30.392Z,55.53
2023-01-23T17:35:01.752Z,67.88
2023-01-23T17:37:31.283Z,84.05
2023-01-23T17:39:59.289Z,69.53
2023-01-23T17:42:28.744Z,59.05
2023-01-23T17:44:56.807Z,59.33
2023-01-23T17:47:25.601Z,57.90
2023-01-23T17:49:55.354Z,123.53
2023-01-23T17:52:24.849Z,81.13
2023-01-23T17:59:55.451Z,74.55
2023-01-23T18:02:28.524Z,77.47
2023-01-23T18:04:57.177Z,79.68
2023-01-23T18:07:25.356Z,73.60
2023-01-23T18:09:55.491Z,69.45
2023-01-23T18:12:31.617Z,68.85
2023-01-23T18:15:11.899Z,60.58
2023-01-23T18:17:46.600Z,56.67
2023-01-23T18:20:19.626Z,58.22
2023-01-23T18:22:48.559Z,59.63
2023-01-23T18:25:18.707Z,56.53
2023-01-23T18:27:51.516Z,52.60
2023-01-23T18:30:42.106Z,52.28
2023-01-23T18:33:41.712Z,51.97
2023-01-23T18:36:24.271Z,45.50
2023-01-23T18:39:11.513Z,52.17
2023-01-23T18:41:46.721Z,46.22
2023-01-23T18:44:20.748Z,51.20
2023-01-23T18:46:50.589Z,47.90
2023-01-23T18:49:32.067Z,48.08
2023-01-23T18:52:08.853Z,51.95
2023-01-23T18:54:43.043Z,47.95
2023-01-23T18:57:28.130Z,54.40
2023-01-23T19:00:05.898Z,57.42
2023-01-23T19:02:43.367Z,59.50
2023-01-23T19:05:24.100Z,55.38
2023-01-23T19:07:52.702Z,59.53
2023-01-23T19:10:22.793Z,58.10
2023-01-23T19:13:14.136Z,63.67
2023-01-23T19:15:49.738Z,65.00
2023-01-23T19:18:40.147Z,58.35
2023-01-23T19:21:16.101Z,60.92
2023-01-23T19:23:50.188Z,63.20
2023-01-23T19:26:19.136Z,62.35
2023-01-23T19:28:47.649Z,57.50
2023-01-23T19:31:22.291Z,42.97
2023-01-23T19:33:52.326Z,56.05
2023-01-23T19:36:20.816Z,55.30
2023-01-23T19:38:49.358Z,54.95
2023-01-23T19:41:20.846Z,40.57
2023-01-23T19:43:50.196Z,60.92
2023-01-23T19:46:19.000Z,59.25
2023-01-23T19:48:47.084Z,55.00
2023-01-23T19:51:19.157Z,56.20
2023-01-23T19:53:47.662Z,54.55
2023-01-23T19:56:17.832Z,58.92
2023-01-23T19:58:46.456Z,56.40
2023-01-23T20:01:25.608Z,62.70
2023-01-23T20:03:53.735Z,59.10
2023-01-23T20:06:23.305Z,66.13
2023-01-23T20:11:19.267Z,66.15
2023-01-23T20:13:47.292Z,66.50
2023-01-23T20:16:18.584Z,69.22
2023-01-23T20:18:48.079Z,56.78
2023-01-23T20:21:16.661Z,61.33
2023-01-23T20:23:49.904Z,54.63
2023-01-23T20:26:19.886Z,50.47
2023-01-23T20:28:48.175Z,50.47
2023-01-23T20:31:18.737Z,52.78
2023-01-23T20:33:46.905Z,49.55
2023-01-23T20:36:15.903Z,56.25
2023-01-23T20:38:44.655Z,52.95
2023-01-23T20:41:15.864Z,38.05
2023-01-23T20:43:43.914Z,54.70
2023-01-23T20:46:13.599Z,52.60
2023-01-23T20:48:44.860Z,57.05
2023-01-23T20:51:14.356Z,57.85
2023-01-23T20:53:43.320Z,71.90
2023-01-23T20:56:14.125Z,54.95
2023-01-23T20:59:01.395Z,55.83
2023-01-23T21:01:52.672Z,57.65
2023-01-23T21:04:21.177Z,53.08
2023-01-23T21:06:49.173Z,52.92
2023-01-23T21:09:17.840Z,51.30
2023-01-23T21:11:49.179Z,51.35
2023-01-23T21:14:17.332Z,54.83
2023-01-23T21:16:45.360Z,55.50
2023-01-23T21:19:13.536Z,51.15
2023-01-23T21:21:42.086Z,60.25
2023-01-23T21:24:10.393Z,53.20
2023-01-23T21:26:38.585Z,62.40
2023-01-23T21:29:09.053Z,66.05
2023-01-23T21:31:40.279Z,60.65
2023-01-23T21:34:10.374Z,54.75
2023-01-23T21:36:38.897Z,49.92
2023-01-23T21:39:10.246Z,52.22
2023-01-23T21:41:38.530Z,50.25
2023-01-23T21:44:08.012Z,50.55
2023-01-23T21:49:04.056Z,51.35
2023-01-23T21:51:38.226Z,54.80
2023-01-23T21:54:06.498Z,55.30
2023-01-23T21:56:34.647Z,51.85
2023-01-23T21:59:02.752Z,51.25
2023-01-23T22:01:36.158Z,56.72
2023-01-23T22:04:06.017Z,53.95
2023-01-23T22:06:35.337Z,54.17
2023-01-23T22:09:03.503Z,49.75
2023-01-23T22:11:32.015Z,56.03
2023-01-23T22:14:00.448Z,57.90
2023-01-23T22:16:46.383Z,65.18
2023-01-23T22:19:18.563Z,55.47
2023-01-23T22:21:47.037Z,55.65
2023-01-23T22:24:15.314Z,41.80
2023-01-23T22:26:43.526Z,53.20
2023-01-23T22:29:12.678Z,54.55
2023-01-23T22:31:40.753Z,54.85
2023-01-23T22:34:08.973Z,54.72
2023-01-23T22:36:38.468Z,54.35
2023-01-23T22:41:34.349Z,55.75
2023-01-23T22:44:02.495Z,58.85
2023-01-23T22:46:32.058Z,59.83
2023-01-23T22:49:00.172Z,62.72
2023-01-23T22:51:29.625Z,54.50
2023-01-23T22:53:59.873Z,59.05
2023-01-23T22:56:28.638Z,56.75
2023-01-23T22:58:57.871Z,46.95
2023-01-23T23:01:27.412Z,65.25
2023-01-23T23:03:57.386Z,62.13
2023-01-23T23:06:25.653Z,56.17
2023-01-23T23:08:54.143Z,60.10
2023-01-23T23:11:25.362Z,63.38
2023-01-23T23:13:54.226Z,66.10
2023-01-23T23:16:24.151Z,59.33
2023-01-23T23:18:54.650Z,62.65
2023-01-23T23:21:25.243Z,57.78
2023-01-23T23:23:57.802Z,59.05
2023-01-23T23:26:28.157Z,60.83
2023-01-23T23:28:56.868Z,65.38
2023-01-23T23:31:25.203Z,46.28
2023-01-23T23:33:53.859Z,62.50
2023-01-23T23:36:21.982Z,66.07
2023-01-23T23:38:49.996Z,61.10
2023-01-23T23:41:19.223Z,73.53
2023-01-23T23:43:48.587Z,62.63
2023-01-23T23:46:17.526Z,69.00
2023-01-23T23:48:46.144Z,65.95
2023-01-23T23:51:16.806Z,68.70
2023-01-23T23:53:44.805Z,62.25
2023-01-23T23:56:20.560Z,65.63
2023-01-23T23:58:50.050Z,66.15
